sensor_id;sensor_type;location;lat;lon;timestamp;temperature;humidity
3758;DHT22;1894;51.038;13.692;2023-06-14T00:01:52;14.20;99.90
3758;DHT22;1894;51.038;13.692;2023-06-14T00:04:19;14.20;99.90
3758;DHT22;1894;51.038;13.692;2023-06-14T00:06:48;14.20;99.90
3758;DHT22;1894;51.038;13.692;2023-06-14T00:09:20;14.10;99.90
3758;DHT22;1894;51.038;13.692;2023-06-14T00:11:48;14.20;99.90
3758;DHT22;1894;51.038;13.692;2023-06-14T00:14:15;14.10;99.90
3758;DHT22;1894;51.038;13.692;2023-06-14T00:16:42;14.10;99.90
3758;DHT22;1894;51.038;13.692;2023-06-14T00:19:12;14.10;99.90
3758;DHT22;1894;51.038;13.692;2023-06-14T00:21:39;14.10;99.90
3758;DHT22;1894;51.038;13.692;2023-06-14T00:24:07;14.00;99.90
3758;DHT22;1894;51.038;13.692;2023-06-14T00:26:35;13.90;99.90
3758;DHT22;1894;51.038;13.692;2023-06-14T00:29:02;13.90;99.90
3758;DHT22;1894;51.038;13.692;2023-06-14T00:31:30;13.80;99.90
3758;DHT22;1894;51.038;13.692;2023-06-14T00:33:57;13.80;99.90
3758;DHT22;1894;51.038;13.692;2023-06-14T00:36:24;13.80;99.90
3758;DHT22;1894;51.038;13.692;2023-06-14T00:38:51;13.80;99.90
3758;DHT22;1894;51.038;13.692;2023-06-14T00:41:18;13.70;99.90
3758;DHT22;1894;51.038;13.692;2023-06-14T00:43:45;13.70;99.90
3758;DHT22;1894;51.038;13.692;2023-06-14T00:46:14;13.70;99.90
3758;DHT22;1894;51.038;13.692;2023-06-14T00:48:42;13.60;99.90
3758;DHT22;1894;51.038;13.692;2023-06-14T00:51:09;13.60;99.90
3758;DHT22;1894;51.038;13.692;2023-06-14T00:53:37;13.60;99.90
3758;DHT22;1894;51.038;13.692;2023-06-14T00:56:06;13.50;99.90
3758;DHT22;1894;51.038;13.692;2023-06-14T00:58:33;13.50;99.90
3758;DHT22;1894;51.038;13.692;2023-06-14T01:01:01;13.50;99.90
3758;DHT22;1894;51.038;13.692;2023-06-14T01:03:28;13.40;99.90
3758;DHT22;1894;51.038;13.692;2023-06-14T01:06:05;13.40;99.90
3758;DHT22;1894;51.038;13.692;2023-06-14T01:08:56;13.40;99.90
3758;DHT22;1894;51.038;13.692;2023-06-14T01:11:32;13.30;99.90
3758;DHT22;1894;51.038;13.692;2023-06-14T01:14:03;13.30;99.90
3758;DHT22;1894;51.038;13.692;2023-06-14T01:16:31;13.20;99.90
3758;DHT22;1894;51.038;13.692;2023-06-14T01:18:59;13.20;99.90
3758;DHT22;1894;51.038;13.692;2023-06-14T01:21:26;13.20;99.90
3758;DHT22;1894;51.038;13.692;2023-06-14T01:23:55;13.10;99.90
3758;DHT22;1894;51.038;13.692;2023-06-14T01:26:25;13.10;99.90
3758;DHT22;1894;51.038;13.692;2023-06-14T01:28:58;13.10;99.90
3758;DHT22;1894;51.038;13.692;2023-06-14T01:31:26;13.10;99.90
3758;DHT22;1894;51.038;13.692;2023-06-14T01:33:54;13.00;99.90
3758;DHT22;1894;51.038;13.692;2023-06-14T01:36:24;13.00;99.90
3758;DHT22;1894;51.038;13.692;2023-06-14T01:38:56;13.00;99.90
3758;DHT22;1894;51.038;13.692;2023-06-14T01:41:27;12.90;99.90
3758;DHT22;1894;51.038;13.692;2023-06-14T01:43:55;12.90;99.90
3758;DHT22;1894;51.038;13.692;2023-06-14T01:46:23;12.90;99.90
3758;DHT22;1894;51.038;13.692;2023-06-14T01:48:53;12.80;99.90
3758;DHT22;1894;51.038;13.692;2023-06-14T01:51:20;12.80;99.90
3758;DHT22;1894;51.038;13.692;2023-06-14T01:53:48;12.80;99.90
3758;DHT22;1894;51.038;13.692;2023-06-14T01:56:15;12.80;99.90
3758;DHT22;1894;51.038;13.692;2023-06-14T01:58:43;12.70;99.90
3758;DHT22;1894;51.038;13.692;2023-06-14T02:01:10;12.70;99.90
3758;DHT22;1894;51.038;13.692;2023-06-14T02:03:38;12.70;99.90
3758;DHT22;1894;51.038;13.692;2023-06-14T02:06:05;12.60;99.90
3758;DHT22;1894;51.038;13.692;2023-06-14T02:08:32;12.60;99.90
3758;DHT22;1894;51.038;13.692;2023-06-14T02:11:00;12.60;99.90
3758;DHT22;1894;51.038;13.692;2023-06-14T02:13:27;12.60;99.90
3758;DHT22;1894;51.038;13.692;2023-06-14T02:15:55;12.60;99.90
3758;DHT22;1894;51.038;13.692;2023-06-14T02:18:22;12.50;99.90
3758;DHT22;1894;51.038;13.692;2023-06-14T02:20:50;12.50;99.90
3758;DHT22;1894;51.038;13.692;2023-06-14T02:23:18;12.50;99.90
3758;DHT22;1894;51.038;13.692;2023-06-14T02:25:45;12.40;99.90
3758;DHT22;1894;51.038;13.692;2023-06-14T02:28:13;12.40;99.90
3758;DHT22;1894;51.038;13.692;2023-06-14T02:30:40;12.40;99.90
3758;DHT22;1894;51.038;13.692;2023-06-14T02:33:07;12.40;99.90
3758;DHT22;1894;51.038;13.692;2023-06-14T02:35:35;12.40;99.90
3758;DHT22;1894;51.038;13.692;2023-06-14T02:38:02;12.40;99.90
3758;DHT22;1894;51.038;13.692;2023-06-14T02:40:29;12.40;99.90
3758;DHT22;1894;51.038;13.692;2023-06-14T02:42:56;12.40;99.90
3758;DHT22;1894;51.038;13.692;2023-06-14T02:45:23;12.40;99.90
3758;DHT22;1894;51.038;13.692;2023-06-14T02:47:50;12.30;99.90
3758;DHT22;1894;51.038;13.692;2023-06-14T02:50:18;12.30;99.90
3758;DHT22;1894;51.038;13.692;2023-06-14T02:52:45;12.30;99.90
3758;DHT22;1894;51.038;13.692;2023-06-14T02:55:13;12.20;99.90
3758;DHT22;1894;51.038;13.692;2023-06-14T02:57:40;12.20;99.90
3758;DHT22;1894;51.038;13.692;2023-06-14T03:00:10;12.20;99.90
3758;DHT22;1894;51.038;13.692;2023-06-14T03:02:42;12.20;99.90
3758;DHT22;1894;51.038;13.692;2023-06-14T03:05:10;12.20;99.90
3758;DHT22;1894;51.038;13.692;2023-06-14T03:07:40;12.20;99.90
3758;DHT22;1894;51.038;13.692;2023-06-14T03:10:09;12.20;99.90
3758;DHT22;1894;51.038;13.692;2023-06-14T03:12:39;12.20;99.90
3758;DHT22;1894;51.038;13.692;2023-06-14T03:15:08;12.20;99.90
3758;DHT22;1894;51.038;13.692;2023-06-14T03:17:39;12.20;99.90
3758;DHT22;1894;51.038;13.692;2023-06-14T03:20:07;12.20;99.90
3758;DHT22;1894;51.038;13.692;2023-06-14T03:22:35;12.20;99.90
3758;DHT22;1894;51.038;13.692;2023-06-14T03:25:03;12.20;99.90
3758;DHT22;1894;51.038;13.692;2023-06-14T03:27:34;12.20;99.90
3758;DHT22;1894;51.038;13.692;2023-06-14T03:30:02;12.30;99.90
3758;DHT22;1894;51.038;13.692;2023-06-14T03:32:31;12.30;99.90
3758;DHT22;1894;51.038;13.692;2023-06-14T03:35:00;12.20;99.90
3758;DHT22;1894;51.038;13.692;2023-06-14T03:37:27;12.20;99.90
3758;DHT22;1894;51.038;13.692;2023-06-14T03:39:55;12.10;99.90
3758;DHT22;1894;51.038;13.692;2023-06-14T03:42:24;12.10;99.90
3758;DHT22;1894;51.038;13.692;2023-06-14T03:44:52;12.10;99.90
3758;DHT22;1894;51.038;13.692;2023-06-14T03:47:21;12.30;99.90
3758;DHT22;1894;51.038;13.692;2023-06-14T03:49:49;12.40;99.90
3758;DHT22;1894;51.038;13.692;2023-06-14T03:52:16;12.50;99.90
3758;DHT22;1894;51.038;13.692;2023-06-14T03:54:45;12.50;99.90
3758;DHT22;1894;51.038;13.692;2023-06-14T03:57:17;12.60;99.90
3758;DHT22;1894;51.038;13.692;2023-06-14T03:59:47;12.60;99.90
3758;DHT22;1894;51.038;13.692;2023-06-14T04:02:14;12.60;99.90
3758;DHT22;1894;51.038;13.692;2023-06-14T04:04:44;12.70;99.90
3758;DHT22;1894;51.038;13.692;2023-06-14T04:07:12;12.80;99.90
3758;DHT22;1894;51.038;13.692;2023-06-14T04:09:39;12.90;99.90
3758;DHT22;1894;51.038;13.692;2023-06-14T04:12:07;12.80;99.90
3758;DHT22;1894;51.038;13.692;2023-06-14T04:14:41;13.00;99.90
3758;DHT22;1894;51.038;13.692;2023-06-14T04:17:10;13.20;99.90
3758;DHT22;1894;51.038;13.692;2023-06-14T04:19:38;13.50;99.90
3758;DHT22;1894;51.038;13.692;2023-06-14T04:22:06;13.60;99.90
3758;DHT22;1894;51.038;13.692;2023-06-14T04:24:35;13.60;99.90
3758;DHT22;1894;51.038;13.692;2023-06-14T04:27:03;13.50;99.90
3758;DHT22;1894;51.038;13.692;2023-06-14T04:29:31;13.40;99.90
3758;DHT22;1894;51.038;13.692;2023-06-14T04:32:03;13.50;99.90
3758;DHT22;1894;51.038;13.692;2023-06-14T04:34:33;13.60;99.90
3758;DHT22;1894;51.038;13.692;2023-06-14T04:37:02;13.60;99.90
3758;DHT22;1894;51.038;13.692;2023-06-14T04:39:34;13.70;99.90
3758;DHT22;1894;51.038;13.692;2023-06-14T04:42:02;13.70;99.90
3758;DHT22;1894;51.038;13.692;2023-06-14T04:44:32;13.50;99.90
3758;DHT22;1894;51.038;13.692;2023-06-14T04:47:02;13.40;99.90
3758;DHT22;1894;51.038;13.692;2023-06-14T04:49:29;13.60;99.90
3758;DHT22;1894;51.038;13.692;2023-06-14T04:52:00;13.90;99.90
3758;DHT22;1894;51.038;13.692;2023-06-14T04:54:40;14.20;99.90
3758;DHT22;1894;51.038;13.692;2023-06-14T04:57:15;14.30;99.90
3758;DHT22;1894;51.038;13.692;2023-06-14T04:59:48;14.40;99.90
3758;DHT22;1894;51.038;13.692;2023-06-14T05:02:15;14.50;99.90
3758;DHT22;1894;51.038;13.692;2023-06-14T05:04:42;14.60;99.90
3758;DHT22;1894;51.038;13.692;2023-06-14T05:07:10;14.60;99.90
3758;DHT22;1894;51.038;13.692;2023-06-14T05:09:37;14.70;99.90
3758;DHT22;1894;51.038;13.692;2023-06-14T05:12:06;14.80;99.90
3758;DHT22;1894;51.038;13.692;2023-06-14T05:14:36;14.80;99.90
3758;DHT22;1894;51.038;13.692;2023-06-14T05:17:05;14.70;99.90
3758;DHT22;1894;51.038;13.692;2023-06-14T05:19:32;14.90;99.90
3758;DHT22;1894;51.038;13.692;2023-06-14T05:22:00;14.90;99.90
3758;DHT22;1894;51.038;13.692;2023-06-14T05:24:28;15.00;99.90
3758;DHT22;1894;51.038;13.692;2023-06-14T05:26:57;15.10;99.90
3758;DHT22;1894;51.038;13.692;2023-06-14T05:29:24;15.20;99.90
3758;DHT22;1894;51.038;13.692;2023-06-14T05:31:56;15.20;99.90
3758;DHT22;1894;51.038;13.692;2023-06-14T05:34:23;15.40;99.90
3758;DHT22;1894;51.038;13.692;2023-06-14T05:36:50;15.50;99.90
3758;DHT22;1894;51.038;13.692;2023-06-14T05:39:18;15.60;99.90
3758;DHT22;1894;51.038;13.692;2023-06-14T05:41:45;15.60;99.90
3758;DHT22;1894;51.038;13.692;2023-06-14T05:44:17;15.70;99.90
3758;DHT22;1894;51.038;13.692;2023-06-14T05:46:44;15.80;99.90
3758;DHT22;1894;51.038;13.692;2023-06-14T05:49:12;15.80;99.90
3758;DHT22;1894;51.038;13.692;2023-06-14T05:51:39;15.60;99.90
3758;DHT22;1894;51.038;13.692;2023-06-14T05:54:06;15.50;99.90
3758;DHT22;1894;51.038;13.692;2023-06-14T05:56:33;15.30;99.90
3758;DHT22;1894;51.038;13.692;2023-06-14T05:59:01;15.50;99.90
3758;DHT22;1894;51.038;13.692;2023-06-14T06:01:28;15.40;99.90
3758;DHT22;1894;51.038;13.692;2023-06-14T06:03:55;15.40;99.90
3758;DHT22;1894;51.038;13.692;2023-06-14T06:06:22;15.80;99.90
3758;DHT22;1894;51.038;13.692;2023-06-14T06:08:49;15.90;99.90
3758;DHT22;1894;51.038;13.692;2023-06-14T06:11:16;16.10;99.90
3758;DHT22;1894;51.038;13.692;2023-06-14T06:13:43;16.30;99.90
3758;DHT22;1894;51.038;13.692;2023-06-14T06:16:10;16.40;99.90
3758;DHT22;1894;51.038;13.692;2023-06-14T06:18:37;16.50;99.90
3758;DHT22;1894;51.038;13.692;2023-06-14T06:21:06;16.40;99.90
3758;DHT22;1894;51.038;13.692;2023-06-14T06:23:33;16.70;99.90
3758;DHT22;1894;51.038;13.692;2023-06-14T06:26:00;16.70;99.90
3758;DHT22;1894;51.038;13.692;2023-06-14T06:28:27;16.90;99.90
3758;DHT22;1894;51.038;13.692;2023-06-14T06:30:54;16.90;99.90
3758;DHT22;1894;51.038;13.692;2023-06-14T06:33:21;17.00;99.90
3758;DHT22;1894;51.038;13.692;2023-06-14T06:35:48;17.10;99.90
3758;DHT22;1894;51.038;13.692;2023-06-14T06:38:15;17.10;99.90
3758;DHT22;1894;51.038;13.692;2023-06-14T06:40:42;17.20;99.90
3758;DHT22;1894;51.038;13.692;2023-06-14T06:43:09;17.40;99.90
3758;DHT22;1894;51.038;13.692;2023-06-14T06:45:45;17.00;99.90
3758;DHT22;1894;51.038;13.692;2023-06-14T06:48:12;17.20;99.90
3758;DHT22;1894;51.038;13.692;2023-06-14T06:50:39;17.50;99.90
3758;DHT22;1894;51.038;13.692;2023-06-14T06:53:06;17.70;99.90
3758;DHT22;1894;51.038;13.692;2023-06-14T06:55:34;17.70;99.90
3758;DHT22;1894;51.038;13.692;2023-06-14T06:58:01;17.70;99.90
3758;DHT22;1894;51.038;13.692;2023-06-14T07:00:28;17.10;99.90
3758;DHT22;1894;51.038;13.692;2023-06-14T07:02:55;17.10;99.90
3758;DHT22;1894;51.038;13.692;2023-06-14T07:05:23;17.50;99.90
3758;DHT22;1894;51.038;13.692;2023-06-14T07:07:51;17.40;99.90
3758;DHT22;1894;51.038;13.692;2023-06-14T07:10:18;17.60;99.90
3758;DHT22;1894;51.038;13.692;2023-06-14T07:12:45;18.00;99.90
3758;DHT22;1894;51.038;13.692;2023-06-14T07:15:12;18.40;99.90
3758;DHT22;1894;51.038;13.692;2023-06-14T07:17:40;18.60;99.90
3758;DHT22;1894;51.038;13.692;2023-06-14T07:20:07;18.80;99.90
3758;DHT22;1894;51.038;13.692;2023-06-14T07:22:35;18.70;99.90
3758;DHT22;1894;51.038;13.692;2023-06-14T07:25:03;18.60;99.90
3758;DHT22;1894;51.038;13.692;2023-06-14T07:27:30;18.60;99.90
3758;DHT22;1894;51.038;13.692;2023-06-14T07:29:57;18.60;99.90
3758;DHT22;1894;51.038;13.692;2023-06-14T07:32:24;19.10;99.90
3758;DHT22;1894;51.038;13.692;2023-06-14T07:34:51;19.40;99.90
3758;DHT22;1894;51.038;13.692;2023-06-14T07:37:18;19.20;99.90
3758;DHT22;1894;51.038;13.692;2023-06-14T07:39:45;19.60;99.90
3758;DHT22;1894;51.038;13.692;2023-06-14T07:42:12;19.60;99.70
3758;DHT22;1894;51.038;13.692;2023-06-14T07:44:39;19.10;99.90
3758;DHT22;1894;51.038;13.692;2023-06-14T07:47:07;19.00;99.90
3758;DHT22;1894;51.038;13.692;2023-06-14T07:49:34;19.40;99.90
3758;DHT22;1894;51.038;13.692;2023-06-14T07:52:01;19.50;99.90
3758;DHT22;1894;51.038;13.692;2023-06-14T07:54:28;19.60;99.90
3758;DHT22;1894;51.038;13.692;2023-06-14T07:56:56;19.80;99.10
3758;DHT22;1894;51.038;13.692;2023-06-14T07:59:24;20.10;96.40
3758;DHT22;1894;51.038;13.692;2023-06-14T08:01:51;19.50;97.30
3758;DHT22;1894;51.038;13.692;2023-06-14T08:04:18;19.50;96.80
3758;DHT22;1894;51.038;13.692;2023-06-14T08:06:45;19.60;96.20
3758;DHT22;1894;51.038;13.692;2023-06-14T08:09:13;19.60;96.30
3758;DHT22;1894;51.038;13.692;2023-06-14T08:11:40;19.80;95.70
3758;DHT22;1894;51.038;13.692;2023-06-14T08:14:07;20.30;95.70
3758;DHT22;1894;51.038;13.692;2023-06-14T08:16:34;20.50;94.70
3758;DHT22;1894;51.038;13.692;2023-06-14T08:19:02;20.70;92.90
3758;DHT22;1894;51.038;13.692;2023-06-14T08:21:29;20.60;91.80
3758;DHT22;1894;51.038;13.692;2023-06-14T08:23:57;20.50;92.70
3758;DHT22;1894;51.038;13.692;2023-06-14T08:26:24;20.60;92.10
3758;DHT22;1894;51.038;13.692;2023-06-14T08:28:55;20.80;92.00
3758;DHT22;1894;51.038;13.692;2023-06-14T08:31:23;20.50;92.40
3758;DHT22;1894;51.038;13.692;2023-06-14T08:33:51;20.80;91.90
3758;DHT22;1894;51.038;13.692;2023-06-14T08:36:18;20.60;92.90
3758;DHT22;1894;51.038;13.692;2023-06-14T08:38:45;20.40;93.20
3758;DHT22;1894;51.038;13.692;2023-06-14T08:41:12;20.70;92.60
3758;DHT22;1894;51.038;13.692;2023-06-14T08:43:47;20.40;92.20
3758;DHT22;1894;51.038;13.692;2023-06-14T08:46:17;20.60;92.70
3758;DHT22;1894;51.038;13.692;2023-06-14T08:48:49;21.10;91.30
3758;DHT22;1894;51.038;13.692;2023-06-14T08:51:19;20.90;89.20
3758;DHT22;1894;51.038;13.692;2023-06-14T08:53:54;20.70;88.40
3758;DHT22;1894;51.038;13.692;2023-06-14T08:56:26;20.50;88.40
3758;DHT22;1894;51.038;13.692;2023-06-14T08:58:56;20.10;87.20
3758;DHT22;1894;51.038;13.692;2023-06-14T09:01:23;20.30;87.20
3758;DHT22;1894;51.038;13.692;2023-06-14T09:03:51;20.50;88.50
3758;DHT22;1894;51.038;13.692;2023-06-14T09:06:19;20.50;87.80
3758;DHT22;1894;51.038;13.692;2023-06-14T09:08:50;20.50;88.50
3758;DHT22;1894;51.038;13.692;2023-06-14T09:11:18;20.70;89.50
3758;DHT22;1894;51.038;13.692;2023-06-14T09:13:46;21.00;88.60
3758;DHT22;1894;51.038;13.692;2023-06-14T09:16:14;21.20;86.30
3758;DHT22;1894;51.038;13.692;2023-06-14T09:18:43;21.10;83.60
3758;DHT22;1894;51.038;13.692;2023-06-14T09:21:11;21.20;83.60
3758;DHT22;1894;51.038;13.692;2023-06-14T09:23:44;20.90;85.50
3758;DHT22;1894;51.038;13.692;2023-06-14T09:26:15;20.90;87.90
3758;DHT22;1894;51.038;13.692;2023-06-14T09:28:47;21.30;81.60
3758;DHT22;1894;51.038;13.692;2023-06-14T09:31:16;21.50;81.80
3758;DHT22;1894;51.038;13.692;2023-06-14T09:33:48;21.50;79.60
3758;DHT22;1894;51.038;13.692;2023-06-14T09:36:22;21.30;78.20
3758;DHT22;1894;51.038;13.692;2023-06-14T09:39:00;21.40;80.10
3758;DHT22;1894;51.038;13.692;2023-06-14T09:41:31;21.30;80.90
3758;DHT22;1894;51.038;13.692;2023-06-14T09:44:00;21.60;80.50
3758;DHT22;1894;51.038;13.692;2023-06-14T09:46:27;21.60;79.50
3758;DHT22;1894;51.038;13.692;2023-06-14T09:48:58;22.00;80.30
3758;DHT22;1894;51.038;13.692;2023-06-14T09:51:27;22.50;78.70
3758;DHT22;1894;51.038;13.692;2023-06-14T09:54:00;23.10;75.90
3758;DHT22;1894;51.038;13.692;2023-06-14T09:56:29;23.30;74.60
3758;DHT22;1894;51.038;13.692;2023-06-14T09:58:58;23.20;74.40
3758;DHT22;1894;51.038;13.692;2023-06-14T10:01:36;23.20;74.00
3758;DHT22;1894;51.038;13.692;2023-06-14T10:04:06;23.00;75.50
3758;DHT22;1894;51.038;13.692;2023-06-14T10:06:40;23.30;74.20
3758;DHT22;1894;51.038;13.692;2023-06-14T10:09:11;22.80;74.70
3758;DHT22;1894;51.038;13.692;2023-06-14T10:11:38;22.90;74.20
3758;DHT22;1894;51.038;13.692;2023-06-14T10:14:12;22.10;75.90
3758;DHT22;1894;51.038;13.692;2023-06-14T10:17:04;22.20;77.20
3758;DHT22;1894;51.038;13.692;2023-06-14T10:19:58;22.20;76.30
3758;DHT22;1894;51.038;13.692;2023-06-14T10:22:35;22.20;78.30
3758;DHT22;1894;51.038;13.692;2023-06-14T10:25:07;22.50;77.90
3758;DHT22;1894;51.038;13.692;2023-06-14T10:27:39;22.80;78.40
3758;DHT22;1894;51.038;13.692;2023-06-14T10:30:14;22.60;83.20
3758;DHT22;1894;51.038;13.692;2023-06-14T10:33:07;23.00;78.00
3758;DHT22;1894;51.038;13.692;2023-06-14T10:35:35;22.30;81.70
3758;DHT22;1894;51.038;13.692;2023-06-14T10:38:11;22.40;81.80
3758;DHT22;1894;51.038;13.692;2023-06-14T10:40:39;22.60;80.30
3758;DHT22;1894;51.038;13.692;2023-06-14T10:43:23;22.60;80.70
3758;DHT22;1894;51.038;13.692;2023-06-14T10:46:16;22.60;80.00
3758;DHT22;1894;51.038;13.692;2023-06-14T10:48:45;22.70;80.70
3758;DHT22;1894;51.038;13.692;2023-06-14T10:51:19;23.00;79.20
3758;DHT22;1894;51.038;13.692;2023-06-14T10:53:48;23.30;80.20
3758;DHT22;1894;51.038;13.692;2023-06-14T10:56:29;23.10;77.00
3758;DHT22;1894;51.038;13.692;2023-06-14T10:58:57;23.00;76.70
3758;DHT22;1894;51.038;13.692;2023-06-14T11:01:39;22.90;80.20
3758;DHT22;1894;51.038;13.692;2023-06-14T11:04:10;22.80;81.60
3758;DHT22;1894;51.038;13.692;2023-06-14T11:06:47;23.10;77.70
3758;DHT22;1894;51.038;13.692;2023-06-14T11:12:21;22.90;79.40
3758;DHT22;1894;51.038;13.692;2023-06-14T11:14:50;23.60;77.70
3758;DHT22;1894;51.038;13.692;2023-06-14T11:17:17;23.40;76.60
3758;DHT22;1894;51.038;13.692;2023-06-14T11:19:44;23.30;77.30
3758;DHT22;1894;51.038;13.692;2023-06-14T11:22:12;23.30;78.40
3758;DHT22;1894;51.038;13.692;2023-06-14T11:24:42;23.20;78.70
3758;DHT22;1894;51.038;13.692;2023-06-14T11:27:09;23.10;78.50
3758;DHT22;1894;51.038;13.692;2023-06-14T11:29:38;22.70;78.60
3758;DHT22;1894;51.038;13.692;2023-06-14T11:32:07;22.40;80.80
3758;DHT22;1894;51.038;13.692;2023-06-14T11:34:39;22.50;82.20
3758;DHT22;1894;51.038;13.692;2023-06-14T11:37:06;22.50;82.00
3758;DHT22;1894;51.038;13.692;2023-06-14T11:39:33;22.50;81.50
3758;DHT22;1894;51.038;13.692;2023-06-14T11:42:01;22.50;79.80
3758;DHT22;1894;51.038;13.692;2023-06-14T11:44:29;22.80;82.10
3758;DHT22;1894;51.038;13.692;2023-06-14T11:46:56;22.80;83.20
3758;DHT22;1894;51.038;13.692;2023-06-14T11:49:24;23.10;82.30
3758;DHT22;1894;51.038;13.692;2023-06-14T11:51:54;23.00;82.80
3758;DHT22;1894;51.038;13.692;2023-06-14T11:54:21;22.90;82.60
3758;DHT22;1894;51.038;13.692;2023-06-14T11:56:48;22.60;83.40
3758;DHT22;1894;51.038;13.692;2023-06-14T11:59:16;22.30;85.30
3758;DHT22;1894;51.038;13.692;2023-06-14T12:01:43;22.20;87.10
3758;DHT22;1894;51.038;13.692;2023-06-14T12:04:10;22.10;87.90
3758;DHT22;1894;51.038;13.692;2023-06-14T12:06:37;22.30;87.40
3758;DHT22;1894;51.038;13.692;2023-06-14T12:09:07;22.20;88.00
3758;DHT22;1894;51.038;13.692;2023-06-14T12:11:40;22.40;87.50
3758;DHT22;1894;51.038;13.692;2023-06-14T12:14:08;22.80;89.30
3758;DHT22;1894;51.038;13.692;2023-06-14T12:16:38;22.70;87.80
3758;DHT22;1894;51.038;13.692;2023-06-14T12:19:16;23.00;84.90
3758;DHT22;1894;51.038;13.692;2023-06-14T12:21:46;23.30;84.80
3758;DHT22;1894;51.038;13.692;2023-06-14T12:24:18;24.00;82.40
3758;DHT22;1894;51.038;13.692;2023-06-14T12:26:45;24.30;81.30
3758;DHT22;1894;51.038;13.692;2023-06-14T12:29:12;25.30;78.00
3758;DHT22;1894;51.038;13.692;2023-06-14T12:31:40;25.90;76.30
3758;DHT22;1894;51.038;13.692;2023-06-14T12:34:08;27.30;75.20
3758;DHT22;1894;51.038;13.692;2023-06-14T12:36:35;27.90;69.90
3758;DHT22;1894;51.038;13.692;2023-06-14T12:39:08;27.20;70.00
3758;DHT22;1894;51.038;13.692;2023-06-14T12:41:36;26.10;73.70
3758;DHT22;1894;51.038;13.692;2023-06-14T12:44:04;25.80;74.10
3758;DHT22;1894;51.038;13.692;2023-06-14T12:46:31;25.50;75.50
3758;DHT22;1894;51.038;13.692;2023-06-14T12:48:59;24.70;78.80
3758;DHT22;1894;51.038;13.692;2023-06-14T12:51:26;27.20;73.00
3758;DHT22;1894;51.038;13.692;2023-06-14T12:53:54;30.20;62.90
3758;DHT22;1894;51.038;13.692;2023-06-14T12:56:21;32.30;57.00
3758;DHT22;1894;51.038;13.692;2023-06-14T12:58:50;32.40;52.90
3758;DHT22;1894;51.038;13.692;2023-06-14T13:01:18;33.30;50.60
3758;DHT22;1894;51.038;13.692;2023-06-14T13:03:46;34.40;47.00
3758;DHT22;1894;51.038;13.692;2023-06-14T13:06:14;35.60;45.20
3758;DHT22;1894;51.038;13.692;2023-06-14T13:08:41;35.20;44.00
3758;DHT22;1894;51.038;13.692;2023-06-14T13:11:08;36.40;41.20
3758;DHT22;1894;51.038;13.692;2023-06-14T13:13:35;37.60;40.00
3758;DHT22;1894;51.038;13.692;2023-06-14T13:16:02;35.50;41.10
3758;DHT22;1894;51.038;13.692;2023-06-14T13:18:29;33.30;42.50
3758;DHT22;1894;51.038;13.692;2023-06-14T13:20:56;30.50;48.70
3758;DHT22;1894;51.038;13.692;2023-06-14T13:23:23;29.30;51.70
3758;DHT22;1894;51.038;13.692;2023-06-14T13:25:50;29.10;53.40
3758;DHT22;1894;51.038;13.692;2023-06-14T13:28:18;31.20;50.40
3758;DHT22;1894;51.038;13.692;2023-06-14T13:30:45;33.40;45.60
3758;DHT22;1894;51.038;13.692;2023-06-14T13:33:13;33.30;45.30
3758;DHT22;1894;51.038;13.692;2023-06-14T13:35:41;34.10;41.10
3758;DHT22;1894;51.038;13.692;2023-06-14T13:38:09;31.70;46.30
3758;DHT22;1894;51.038;13.692;2023-06-14T13:40:38;29.70;50.50
3758;DHT22;1894;51.038;13.692;2023-06-14T13:43:05;28.10;53.60
3758;DHT22;1894;51.038;13.692;2023-06-14T13:45:32;26.90;56.60
3758;DHT22;1894;51.038;13.692;2023-06-14T13:47:59;26.10;58.80
3758;DHT22;1894;51.038;13.692;2023-06-14T13:50:27;25.20;62.10
3758;DHT22;1894;51.038;13.692;2023-06-14T13:52:54;25.60;61.70
3758;DHT22;1894;51.038;13.692;2023-06-14T13:55:21;28.40;57.30
3758;DHT22;1894;51.038;13.692;2023-06-14T13:57:49;31.40;49.00
3758;DHT22;1894;51.038;13.692;2023-06-14T14:00:17;33.50;45.30
3758;DHT22;1894;51.038;13.692;2023-06-14T14:02:47;35.10;41.10
3758;DHT22;1894;51.038;13.692;2023-06-14T14:05:17;37.10;36.40
3758;DHT22;1894;51.038;13.692;2023-06-14T14:07:45;38.50;35.10
3758;DHT22;1894;51.038;13.692;2023-06-14T14:10:12;38.30;33.90
3758;DHT22;1894;51.038;13.692;2023-06-14T14:12:48;39.70;32.00
3758;DHT22;1894;51.038;13.692;2023-06-14T14:15:15;39.50;31.50
3758;DHT22;1894;51.038;13.692;2023-06-14T14:17:43;36.70;34.00
3758;DHT22;1894;51.038;13.692;2023-06-14T14:20:10;33.20;38.60
3758;DHT22;1894;51.038;13.692;2023-06-14T14:22:43;31.10;42.80
3758;DHT22;1894;51.038;13.692;2023-06-14T14:25:10;28.80;46.60
3758;DHT22;1894;51.038;13.692;2023-06-14T14:27:37;27.70;49.60
3758;DHT22;1894;51.038;13.692;2023-06-14T14:30:05;29.90;46.40
3758;DHT22;1894;51.038;13.692;2023-06-14T14:32:32;32.90;43.00
3758;DHT22;1894;51.038;13.692;2023-06-14T14:34:59;35.00;36.90
3758;DHT22;1894;51.038;13.692;2023-06-14T14:37:27;36.30;34.60
3758;DHT22;1894;51.038;13.692;2023-06-14T14:40:00;36.60;34.00
3758;DHT22;1894;51.038;13.692;2023-06-14T14:42:27;35.70;36.80
3758;DHT22;1894;51.038;13.692;2023-06-14T14:44:55;37.20;34.10
3758;DHT22;1894;51.038;13.692;2023-06-14T14:47:22;37.70;34.10
3758;DHT22;1894;51.038;13.692;2023-06-14T14:49:49;38.30;30.90
3758;DHT22;1894;51.038;13.692;2023-06-14T14:52:16;34.40;34.40
3758;DHT22;1894;51.038;13.692;2023-06-14T14:54:50;33.30;35.40
3758;DHT22;1894;51.038;13.692;2023-06-14T14:57:18;33.10;35.90
3758;DHT22;1894;51.038;13.692;2023-06-14T14:59:45;34.10;34.30
3758;DHT22;1894;51.038;13.692;2023-06-14T15:02:12;32.70;35.50
3758;DHT22;1894;51.038;13.692;2023-06-14T15:04:39;34.10;34.60
3758;DHT22;1894;51.038;13.692;2023-06-14T15:07:06;35.80;33.80
3758;DHT22;1894;51.038;13.692;2023-06-14T15:09:34;37.60;30.40
3758;DHT22;1894;51.038;13.692;2023-06-14T15:12:01;38.20;29.50
3758;DHT22;1894;51.038;13.692;2023-06-14T15:14:29;36.50;30.00
3758;DHT22;1894;51.038;13.692;2023-06-14T15:16:57;36.70;30.90
3758;DHT22;1894;51.038;13.692;2023-06-14T15:19:25;36.20;31.20
3758;DHT22;1894;51.038;13.692;2023-06-14T15:21:52;35.20;31.10
3758;DHT22;1894;51.038;13.692;2023-06-14T15:24:19;33.70;32.00
3758;DHT22;1894;51.038;13.692;2023-06-14T15:27:06;32.40;34.60
3758;DHT22;1894;51.038;13.692;2023-06-14T15:29:34;33.00;35.30
3758;DHT22;1894;51.038;13.692;2023-06-14T15:32:01;34.00;34.90
3758;DHT22;1894;51.038;13.692;2023-06-14T15:34:28;36.10;31.60
3758;DHT22;1894;51.038;13.692;2023-06-14T15:36:55;37.40;29.90
3758;DHT22;1894;51.038;13.692;2023-06-14T15:39:23;39.40;31.20
3758;DHT22;1894;51.038;13.692;2023-06-14T15:41:50;38.50;29.70
3758;DHT22;1894;51.038;13.692;2023-06-14T15:44:19;36.20;30.20
3758;DHT22;1894;51.038;13.692;2023-06-14T15:46:46;32.90;32.50
3758;DHT22;1894;51.038;13.692;2023-06-14T15:49:13;31.40;34.40
3758;DHT22;1894;51.038;13.692;2023-06-14T15:51:41;30.30;36.70
3758;DHT22;1894;51.038;13.692;2023-06-14T15:54:08;28.70;39.50
3758;DHT22;1894;51.038;13.692;2023-06-14T15:56:36;27.60;42.20
3758;DHT22;1894;51.038;13.692;2023-06-14T15:59:05;27.40;44.10